Time;durP1;ratioP1;P1;durP2;ratioP2;P2;SDS_P1;SDS_P2;PMS_P1;PMS_P2;Temp;Humidity;BMP_temperature;BMP_pressure;BME280_temperature;BME280_humidity;BME280_pressure;Samples;Min_cycle;Max_cycle;Signal;HPM_P1;HPM_P2
2023/07/03 00:00:45;;;;;;;10.30;4.72;;;;;;;18.00;nan;-21735.88;5034233;28;20180;-58
2023/07/03 00:03:14;;;;;;;9.30;4.22;;;;;;;19.34;nan;-21767.34;5034273;28;20223;-57
2023/07/03 00:05:47;;;;;;;8.73;4.78;;;;;;;19.60;nan;-21126.13;5033952;28;20210;-57
2023/07/03 00:08:17;;;;;;;8.80;4.30;;;;;;;19.49;nan;-21770.78;5034456;28;20246;-57
2023/07/03 00:10:42;;;;;;;10.00;5.03;;;;;;;19.34;nan;-22090.59;5034661;28;20168;-58
2023/07/03 00:13:09;;;;;;;7.53;4.40;;;;;;;19.09;nan;-22407.78;5034367;28;20320;-57
2023/07/03 00:15:35;;;;;;;9.95;4.93;;;;;;;19.37;nan;-22414.81;5034283;28;20171;-57
2023/07/03 00:18:00;;;;;;;8.77;4.38;;;;;;;19.26;nan;-22412.09;5032190;28;20187;-57
2023/07/03 00:20:27;;;;;;;9.55;4.32;;;;;;;19.10;nan;-22408.16;5033115;28;20171;-63
2023/07/03 00:22:53;;;;;;;6.95;4.07;;;;;;;19.01;nan;-22405.94;5033587;28;20258;-57
2023/07/03 00:25:19;;;;;;;8.63;4.22;;;;;;;19.26;nan;-22412.09;5033451;28;20213;-59
2023/07/03 00:27:46;;;;;;;9.43;4.13;;;;;;;19.23;nan;-22411.38;5033279;28;20172;-57
2023/07/03 00:30:12;;;;;;;9.88;4.40;;;;;;;19.18;nan;-22733.34;5033449;28;20669;-57
2023/07/03 00:32:37;;;;;;;11.50;3.85;;;;;;;19.00;nan;-22405.56;5033410;28;20229;-57
2023/07/03 00:35:04;;;;;;;8.15;4.35;;;;;;;19.17;nan;-22732.97;5032942;28;20216;-57
2023/07/03 00:37:29;;;;;;;10.07;4.55;;;;;;;19.01;nan;-22729.06;5033425;28;20729;-56
2023/07/03 00:39:55;;;;;;;8.57;4.65;;;;;;;19.27;nan;-22735.50;5030293;28;20331;-56
2023/07/03 00:42:28;;;;;;;10.52;4.40;;;;;;;19.29;nan;-22089.50;5031914;28;20579;-56
2023/07/03 00:44:53;;;;;;;8.60;4.57;;;;;;;19.21;nan;-21764.28;5033730;28;20198;-58
2023/07/03 00:47:19;;;;;;;7.80;4.80;;;;;;;15.27;nan;-22635.56;5032993;28;20176;-58
2023/07/03 00:49:44;;;;;;;8.80;4.40;;;;;;;18.88;nan;-22725.91;5032699;28;21351;-57
2023/07/03 00:52:12;;;;;;;9.20;4.72;;;;;;;19.09;nan;-22730.97;5033039;28;20627;-57
2023/07/03 00:54:40;;;;;;;10.32;4.38;;;;;;;19.14;nan;-22409.13;5032912;28;20175;-56
2023/07/03 00:57:11;;;;;;;9.18;4.18;;;;;;;19.19;nan;-21763.69;5032903;28;20240;-57
2023/07/03 00:59:36;;;;;;;8.02;4.60;;;;;;;18.84;nan;-20785.97;5032748;28;20171;-57
2023/07/03 01:02:11;;;;;;;8.90;4.25;;;;;;;19.28;nan;-21442.53;5032491;28;20319;-57
2023/07/03 01:04:53;;;;;;;8.57;4.32;;;;;;;19.05;nan;-20143.75;5032680;28;20206;-58
2023/07/03 01:07:23;;;;;;;7.97;4.38;;;;;;;18.92;nan;-20787.84;5032663;28;20346;-56
2023/07/03 01:09:56;;;;;;;8.90;4.80;;;;;;;19.06;nan;-21114.16;5032772;28;20190;-57
2023/07/03 01:12:24;;;;;;;10.35;3.85;;;;;;;18.78;nan;-20784.66;5032649;28;20172;-58
2023/07/03 01:14:53;;;;;;;9.73;4.65;;;;;;;18.92;nan;-20787.84;5032621;28;20231;-58
2023/07/03 01:17:19;;;;;;;8.40;4.22;;;;;;;18.82;nan;-20785.66;5032351;28;20183;-59
2023/07/03 01:19:47;;;;;;;9.15;4.00;;;;;;;18.60;nan;-20134.50;5032546;28;20171;-57
2023/07/03 01:22:20;;;;;;;7.90;4.32;;;;;;;19.07;nan;-19497.28;5032478;28;20639;-58
2023/07/03 01:24:52;;;;;;;8.90;4.13;;;;;;;19.13;nan;-17880.59;5032521;28;20188;-56
2023/07/03 01:27:22;;;;;;;6.53;3.88;;;;;;;19.08;nan;-17232.38;5031771;28;20226;-57
2023/07/03 01:29:50;;;;;;;6.50;4.07;;;;;;;18.75;nan;-16579.94;5032872;28;20215;-57
2023/07/03 01:32:19;;;;;;;6.55;3.33;;;;;;;19.00;nan;-16259.84;5032675;28;20184;-57
2023/07/03 01:34:47;;;;;;;11.88;4.50;;;;;;;18.91;nan;-15287.34;5032697;28;20182;-58
2023/07/03 01:37:14;;;;;;;6.47;3.67;;;;;;;19.11;nan;-15613.81;5032518;28;20179;-58
2023/07/03 01:39:42;;;;;;;8.25;3.75;;;;;;;19.03;nan;-15288.88;5032360;28;20622;-57
2023/07/03 01:42:10;;;;;;;8.25;4.32;;;;;;;19.11;nan;-14641.94;5032499;28;20207;-58
2023/07/03 01:44:36;;;;;;;6.00;3.90;;;;;;;18.94;nan;-13344.09;5032251;28;20615;-58
2023/07/03 01:47:08;;;;;;;8.23;4.32;;;;;;;19.32;nan;-11077.50;5032593;28;20171;-57
2023/07/03 01:49:33;;;;;;;7.53;3.78;;;;;;;19.12;nan;-11076.25;5032298;28;20174;-57
2023/07/03 01:52:11;;;;;;;7.78;3.97;;;;;;;19.25;nan;-11077.06;5031888;28;20176;-56
2023/07/03 01:54:53;;;;;;;8.27;4.43;;;;;;;19.39;nan;-10753.41;5032324;28;20237;-58
2023/07/03 01:57:56;;;;;;;7.93;4.03;;;;;;;19.53;nan;-8156.41;5032247;28;20257;-57
2023/07/03 02:00:48;;;;;;;7.97;4.25;;;;;;;19.43;nan;-10753.63;5030297;28;20267;-56
2023/07/03 02:03:24;;;;;;;6.22;3.90;;;;;;;19.25;nan;-12698.75;5027339;28;20225;-57
2023/07/03 02:05:54;;;;;;;8.10;4.35;;;;;;;18.94;nan;-13992.09;5032168;28;20207;-56
2023/07/03 02:08:21;;;;;;;8.07;4.05;;;;;;;19.08;nan;-13669.53;5031896;28;20228;-58
2023/07/03 02:10:46;;;;;;;7.15;4.03;;;;;;;18.99;nan;-13668.63;5031967;28;20174;-58
2023/07/03 02:13:12;;;;;;;5.82;3.55;;;;;;;18.93;nan;-13991.97;5032209;28;20179;-57
2023/07/03 02:15:38;;;;;;;11.32;4.45;;;;;;;18.93;nan;-14315.94;5031721;28;20179;-58
2023/07/03 02:18:04;;;;;;;6.88;4.45;;;;;;;19.23;nan;-14319.38;5032442;28;20172;-58
2023/07/03 02:20:29;;;;;;;8.38;4.10;;;;;;;18.97;nan;-14640.38;5032231;28;20178;-57
2023/07/03 02:22:56;;;;;;;6.88;4.15;;;;;;;19.08;nan;-13669.59;5031693;28;20744;-57
2023/07/03 02:25:21;;;;;;;6.43;4.22;;;;;;;19.03;nan;-13020.88;5031522;28;20230;-57
2023/07/03 02:27:50;;;;;;;7.93;4.40;;;;;;;19.36;nan;-13024.03;5032229;28;20259;-57
2023/07/03 02:30:16;;;;;;;6.22;3.70;;;;;;;19.38;nan;-12051.16;5032280;28;20168;-57
2023/07/03 02:32:41;;;;;;;7.38;3.95;;;;;;;19.12;nan;-12373.38;5031913;28;20179;-57
2023/07/03 02:35:08;;;;;;;7.15;3.83;;;;;;;19.27;nan;-11401.56;5031893;28;20245;-56
2023/07/03 02:37:33;;;;;;;7.18;4.25;;;;;;;19.16;nan;-10752.13;5032105;28;20185;-58
2023/07/03 02:39:59;;;;;;;8.80;4.47;;;;;;;19.59;nan;-10105.22;5031644;28;20171;-57
2023/07/03 02:42:24;;;;;;;8.57;4.60;;;;;;;19.44;nan;-8805.84;5032039;28;20171;-58
2023/07/03 02:44:50;;;;;;;9.75;4.60;;;;;;;19.64;nan;-5556.28;5032244;28;20213;-59
2023/07/03 02:47:16;;;;;;;10.68;4.45;;;;;;;19.96;nan;-2951.66;5031928;28;20175;-58
2023/07/03 02:49:42;;;;;;;7.75;3.90;;;;;;;19.88;nan;-1324.09;5031568;28;20555;-56
2023/07/03 02:52:07;;;;;;;9.05;4.05;;;;;;;20.14;nan;-669.81;5031543;28;20171;-58
2023/07/03 02:54:33;;;;;;;5.95;4.30;;;;;;;20.20;nan;308.88;5031253;28;20175;-58
2023/07/03 02:56:58;;;;;;;7.50;4.30;;;;;;;20.24;nan;2266.31;5031772;28;20184;-57
2023/07/03 02:59:24;;;;;;;6.95;4.28;;;;;;;20.42;nan;5860.88;5031627;28;20239;-57
2023/07/03 03:01:49;;;;;;;8.95;4.65;;;;;;;20.61;nan;7499.53;5031134;28;20171;-58
2023/07/03 03:04:16;;;;;;;8.68;5.10;;;;;;;20.61;nan;12080.41;5031573;28;20231;-57
2023/07/03 03:06:43;;;;;;;6.75;4.15;;;;;;;20.81;nan;18643.78;5035244;28;20690;-57
2023/07/03 03:09:09;;;;;;;7.38;4.35;;;;;;;21.00;nan;18323.56;5035064;28;20175;-57
2023/07/03 03:11:35;;;;;;;8.68;4.40;;;;;;;20.36;nan;26176.03;5035262;28;20734;-59
2023/07/03 03:14:00;;;;;;;7.00;4.45;;;;;;;21.88;nan;34506.25;5035350;28;20224;-57
2023/07/03 03:16:26;;;;;;;10.50;4.70;;;;;;;21.77;nan;41762.34;5034988;28;20547;-58
2023/07/03 03:18:51;;;;;;;8.20;5.10;;;;;;;22.51;nan;48140.78;5035205;28;20172;-56
2023/07/03 03:21:17;;;;;;;8.82;4.78;;;;;;;22.67;nan;52163.44;5034378;28;20266;-58
2023/07/03 03:23:43;;;;;;;8.43;4.47;;;;;;;22.51;nan;53036.06;5034546;28;20235;-58
2023/07/03 03:26:08;;;;;;;8.63;4.43;;;;;;;22.94;nan;53988.53;5035001;28;20618;-58
2023/07/03 03:28:33;;;;;;;8.30;4.50;;;;;;;23.31;nan;56518.44;5035122;28;20163;-57
2023/07/03 03:30:59;;;;;;;8.35;4.50;;;;;;;23.88;nan;58253.13;5034915;28;20585;-57
2023/07/03 03:33:25;;;;;;;9.35;4.85;;;;;;;24.75;nan;59364.03;5034833;28;20167;-57
2023/07/03 03:35:50;;;;;;;10.32;4.50;;;;;;;24.72;nan;59969.31;5034841;28;20171;-58
2023/07/03 03:38:16;;;;;;;8.90;4.75;;;;;;;24.23;nan;59986.31;5034289;28;20182;-59
2023/07/03 03:41:03;;;;;;;7.22;4.55;;;;;;;23.61;nan;59181.75;5034725;28;20695;-57
2023/07/03 03:43:29;;;;;;;9.93;5.43;;;;;;;22.92;nan;58208.28;5034599;28;20656;-58
2023/07/03 03:45:56;;;;;;;9.55;5.22;;;;;;;22.96;nan;56770.66;5034941;28;20200;-58
2023/07/03 03:48:22;;;;;;;9.32;4.82;;;;;;;22.59;nan;55869.50;5034650;28;20175;-58
2023/07/03 03:50:48;;;;;;;7.47;4.68;;;;;;;23.56;nan;57761.19;5034381;28;20184;-58
2023/07/03 03:53:13;;;;;;;10.50;4.70;;;;;;;25.07;nan;59885.66;5034842;28;20175;-56
2023/07/03 03:55:38;;;;;;;11.15;4.97;;;;;;;26.11;nan;60757.91;5034423;28;20179;-59
2023/07/03 03:58:04;;;;;;;9.65;5.00;;;;;;;27.20;nan;61607.72;5034819;28;20163;-58
2023/07/03 04:00:29;;;;;;;7.05;4.72;;;;;;;;;;5034988;28;20194;-58
2023/07/03 04:02:55;;;;;;;8.85;5.00;;;;;;;25.34;nan;63608.09;5034556;28;20231;-59
2023/07/03 04:05:20;;;;;;;8.93;4.93;;;;;;;28.80;nan;62501.81;5033871;28;20203;-59
2023/07/03 04:07:46;;;;;;;8.98;4.90;;;;;;;29.01;nan;62616.78;5034405;28;20175;-58
2023/07/03 04:10:11;;;;;;;10.80;5.20;;;;;;;29.62;nan;62683.97;5033427;28;20568;-57
2023/07/03 04:12:37;;;;;;;7.13;4.43;;;;;;;29.74;nan;62907.94;5034127;28;20646;-57
2023/07/03 04:15:03;;;;;;;10.88;5.07;;;;;;;29.62;nan;62794.63;5033594;28;20261;-59
2023/07/03 04:17:28;;;;;;;9.48;5.13;;;;;;;29.76;nan;62921.34;5033480;28;20214;-57
2023/07/03 04:19:54;;;;;;;9.60;5.30;;;;;;;30.45;nan;63010.06;5033676;28;20202;-58
2023/07/03 04:22:19;;;;;;;9.15;4.82;;;;;;;30.67;nan;63294.00;5033348;28;20197;-59
2023/07/03 04:24:44;;;;;;;8.25;5.07;;;;;;;30.33;nan;62932.38;5034168;28;20190;-58
2023/07/03 04:27:10;;;;;;;9.18;5.20;;;;;;;30.24;nan;63022.84;5032850;28;20187;-58
2023/07/03 04:29:36;;;;;;;10.10;5.22;;;;;;;30.04;nan;63005.09;5033557;28;20182;-59
2023/07/03 04:32:02;;;;;;;9.45;4.88;;;;;;;29.98;nan;63016.66;5031033;28;20175;-58
2023/07/03 04:34:28;;;;;;;8.60;5.55;;;;;;;29.81;nan;63011.44;5023945;28;20171;-59
2023/07/03 04:36:53;;;;;;;9.55;5.53;;;;;;;29.32;nan;62808.19;5022866;28;20206;-57
2023/07/03 04:39:19;;;;;;;8.73;5.43;;;;;;;28.61;nan;62858.88;5027962;28;20545;-57
2023/07/03 04:41:44;;;;;;;9.38;5.40;;;;;;;29.07;nan;63050.09;5033626;28;20175;-58
2023/07/03 04:44:12;;;;;;;10.52;5.93;;;;;;;28.74;nan;62731.75;5033372;28;20780;-57
2023/07/03 04:46:42;;;;;;;9.50;5.82;;;;;;;28.87;nan;62735.53;5032514;28;20206;-58
2023/07/03 04:49:07;;;;;;;9.82;5.85;;;;;;;28.89;nan;62796.31;5032776;28;20186;-58
2023/07/03 04:51:33;;;;;;;11.48;6.40;;;;;;;28.28;nan;62576.50;5030371;28;20598;-57
2023/07/03 04:54:00;;;;;;;10.60;6.20;;;;;;;27.55;nan;62471.13;5032345;28;20224;-58
2023/07/03 04:56:26;;;;;;;12.45;6.53;;;;;;;28.61;nan;62822.06;5032628;28;20236;-58
2023/07/03 04:58:52;;;;;;;10.60;6.18;;;;;;;28.11;nan;62626.53;5032892;28;20646;-58
2023/07/03 05:01:18;;;;;;;9.65;5.93;;;;;;;28.46;nan;62702.84;5032540;28;20186;-57
2023/07/03 05:03:43;;;;;;;12.00;7.22;;;;;;;28.48;nan;62780.84;5031199;28;20222;-58
2023/07/03 05:06:10;;;;;;;10.52;6.40;;;;;;;28.20;nan;62688.28;5032496;28;20181;-57
2023/07/03 05:08:36;;;;;;;8.70;6.25;;;;;;;28.31;nan;62722.47;5032422;28;20159;-59
2023/07/03 05:11:01;;;;;;;11.15;6.85;;;;;;;28.27;nan;62764.63;5032522;28;20163;-58
2023/07/03 05:13:27;;;;;;;10.75;6.72;;;;;;;28.16;nan;62676.38;5032494;28;20625;-57
2023/07/03 05:15:53;;;;;;;12.18;6.90;;;;;;;28.31;nan;62703.50;5032055;28;20210;-58
2023/07/03 05:18:19;;;;;;;13.05;7.38;;;;;;;27.39;nan;62549.94;5032083;28;20170;-58
2023/07/03 05:20:45;;;;;;;13.70;7.72;;;;;;;27.16;nan;62591.88;5032468;28;20177;-58
2023/07/03 05:23:13;;;;;;;12.45;7.43;;;;;;;27.44;nan;62568.22;5032294;28;20186;-58
2023/07/03 05:25:39;;;;;;;12.75;7.38;;;;;;;;;;5031966;28;20408;-58
2023/07/03 05:28:04;;;;;;;12.90;7.20;;;;;;;27.22;nan;62817.16;5030771;28;20282;-58
2023/07/03 05:30:30;;;;;;;13.68;7.55;;;;;;;27.48;nan;62667.91;5031649;28;20162;-57
2023/07/03 05:32:55;;;;;;;14.13;7.82;;;;;;;27.00;nan;62608.25;5032139;28;20534;-60
2023/07/03 05:35:21;;;;;;;13.98;7.78;;;;;;;27.01;nan;62598.31;5031671;28;20261;-59
2023/07/03 05:37:46;;;;;;;12.40;7.75;;;;;;;26.77;nan;62498.53;5031836;28;20174;-57
2023/07/03 05:40:14;;;;;;;13.80;8.45;;;;;;;26.60;nan;62631.16;5031438;28;20535;-59
2023/07/03 05:42:40;;;;;;;13.05;7.85;;;;;;;26.71;nan;62517.31;5030198;28;20219;-59
2023/07/03 05:45:06;;;;;;;19.70;7.97;;;;;;;26.48;nan;62392.00;5030741;28;20209;-58
2023/07/03 05:47:34;;;;;;;13.15;8.00;;;;;;;26.35;nan;62477.31;5031329;28;20646;-58
2023/07/03 05:49:59;;;;;;;13.38;8.13;;;;;;;26.43;nan;62514.72;5031374;28;20186;-57
2023/07/03 05:52:25;;;;;;;17.42;8.95;;;;;;;25.26;nan;62251.81;5031263;28;20167;-58
2023/07/03 05:54:50;;;;;;;15.25;8.93;;;;;;;24.56;nan;62243.72;5031512;28;20618;-58
2023/07/03 05:57:16;;;;;;;13.40;8.20;;;;;;;24.71;nan;62225.69;5031292;28;20229;-58
2023/07/03 05:59:41;;;;;;;15.27;8.43;;;;;;;24.61;nan;62175.66;5031483;28;20177;-58
2023/07/03 06:02:11;;;;;;;13.65;8.48;;;;;;;24.64;nan;62203.19;5031203;28;20613;-57
2023/07/03 06:04:36;;;;;;;15.07;9.55;;;;;;;24.40;nan;62188.91;5031829;28;20273;-59
2023/07/03 06:07:02;;;;;;;15.50;9.50;;;;;;;25.02;nan;62237.53;5031436;28;20586;-59
2023/07/03 06:09:28;;;;;;;16.38;9.20;;;;;;;24.95;nan;62140.66;5031132;28;20188;-60
2023/07/03 06:11:55;;;;;;;14.30;8.35;;;;;;;24.76;nan;62179.13;5031046;28;20225;-58
2023/07/03 06:14:20;;;;;;;16.95;9.30;;;;;;;25.00;nan;62219.56;5031586;28;20248;-58
2023/07/03 06:16:47;;;;;;;16.77;8.90;;;;;;;25.06;nan;62247.34;5031037;28;20250;-58
2023/07/03 06:19:15;;;;;;;13.85;7.93;;;;;;;22.70;nan;61976.13;5030566;28;20187;-59
2023/07/03 06:21:40;;;;;;;15.50;8.73;;;;;;;25.23;nan;62263.53;5031705;28;20187;-60
2023/07/03 06:24:08;;;;;;;15.05;8.70;;;;;;;22.69;nan;63838.69;5031545;28;20662;-58
2023/07/03 06:26:34;;;;;;;16.77;9.20;;;;;;;25.40;nan;62369.84;5031062;28;20171;-58
2023/07/03 06:29:00;;;;;;;15.38;8.65;;;;;;;25.74;nan;62374.09;5031085;28;20175;-59
2023/07/03 06:31:26;;;;;;;15.57;9.07;;;;;;;25.24;nan;62500.13;5031324;28;20246;-58
2023/07/03 06:33:52;;;;;;;13.77;8.55;;;;;;;25.32;nan;62415.66;5031440;28;20669;-58
2023/07/03 06:36:21;;;;;;;14.35;8.68;;;;;;;25.21;nan;62274.91;5031311;28;20305;-59
2023/07/03 06:38:55;;;;;;;16.75;9.43;;;;;;;25.29;nan;62126.50;5032057;28;20607;-58
2023/07/03 06:41:21;;;;;;;16.20;8.73;;;;;;;25.68;nan;62333.22;5035338;28;20179;-59
2023/07/03 06:43:47;;;;;;;13.98;8.82;;;;;;;25.14;nan;62368.94;5035128;28;20175;-60
2023/07/03 06:46:12;;;;;;;17.00;9.25;;;;;;;25.69;nan;62469.91;5035287;28;20550;-58
2023/07/03 06:48:38;;;;;;;14.77;8.70;;;;;;;25.64;nan;62375.19;5035064;28;20213;-58
2023/07/03 06:51:05;;;;;;;16.45;8.95;;;;;;;25.85;nan;62399.75;5035270;28;20635;-57
2023/07/03 06:53:31;;;;;;;17.27;9.75;;;;;;;26.06;nan;62504.38;5034993;28;20179;-58
2023/07/03 06:55:57;;;;;;;14.35;8.93;;;;;;;25.89;nan;62377.56;5034773;28;20175;-58
2023/07/03 06:58:24;;;;;;;18.13;9.07;;;;;;;25.62;nan;62440.97;5034863;28;20178;-59
2023/07/03 07:00:49;;;;;;;13.55;8.35;;;;;;;25.83;nan;62449.28;5034781;28;20172;-57
2023/07/03 07:03:15;;;;;;;15.27;9.35;;;;;;;26.06;nan;62412.69;5034487;28;20310;-59
2023/07/03 07:05:40;;;;;;;15.07;8.73;;;;;;;26.14;nan;62478.91;5034773;28;20218;-59
2023/07/03 07:08:05;;;;;;;14.15;8.15;;;;;;;26.29;nan;62514.41;5034813;28;20245;-58
2023/07/03 07:10:31;;;;;;;15.40;8.32;;;;;;;26.32;nan;62470.66;5034905;28;20202;-59
2023/07/03 07:12:56;;;;;;;13.40;8.18;;;;;;;26.10;nan;62406.22;5034375;28;20548;-58
2023/07/03 07:15:21;;;;;;;13.30;8.13;;;;;;;26.38;nan;62472.88;5035004;28;20198;-58
2023/07/03 07:17:47;;;;;;;15.23;8.73;;;;;;;26.65;nan;62571.34;5034460;28;20575;-59
2023/07/03 07:20:13;;;;;;;16.83;9.30;;;;;;;26.85;nan;62562.19;5034357;28;20171;-58
2023/07/03 07:22:38;;;;;;;14.98;8.60;;;;;;;26.60;nan;62523.09;5034319;28;20172;-57
2023/07/03 07:25:04;;;;;;;13.50;8.35;;;;;;;26.45;nan;62443.59;5034354;28;20632;-59
2023/07/03 07:27:29;;;;;;;16.10;8.38;;;;;;;26.56;nan;62605.59;5034072;28;20669;-58
2023/07/03 07:29:55;;;;;;;15.25;8.52;;;;;;;26.93;nan;62589.72;5034008;28;20708;-61
2023/07/03 07:32:24;;;;;;;14.95;8.20;;;;;;;27.03;nan;62611.09;5034349;28;20270;-59
2023/07/03 07:34:50;;;;;;;14.85;8.85;;;;;;;27.03;nan;62595.34;5034056;28;20206;-60
2023/07/03 07:37:15;;;;;;;15.60;8.85;;;;;;;26.76;nan;62549.28;5034352;28;20219;-59
2023/07/03 07:39:42;;;;;;;15.88;9.02;;;;;;;27.18;nan;62602.59;5034202;28;20175;-58
2023/07/03 07:42:08;;;;;;;14.18;8.68;;;;;;;26.97;nan;62646.78;5034046;28;20175;-58
2023/07/03 07:44:34;;;;;;;15.68;8.48;;;;;;;27.09;nan;62730.81;5033842;28;20195;-58
2023/07/03 07:47:00;;;;;;;14.63;8.60;;;;;;;27.30;nan;62701.81;5033557;28;20618;-59
2023/07/03 07:49:25;;;;;;;16.15;9.18;;;;;;;27.19;nan;62593.25;5033809;28;20174;-58
2023/07/03 07:51:51;;;;;;;12.95;7.88;;;;;;;27.41;nan;62690.81;5033159;28;20348;-59
2023/07/03 07:54:16;;;;;;;12.50;7.72;;;;;;;27.43;nan;62698.34;5034133;28;20170;-59
2023/07/03 07:56:42;;;;;;;15.20;9.20;;;;;;;27.25;nan;62691.41;5033784;28;20639;-60
2023/07/03 07:59:07;;;;;;;15.27;8.95;;;;;;;27.28;nan;62720.53;5033939;28;20543;-60
2023/07/03 08:01:32;;;;;;;15.77;8.48;;;;;;;27.56;nan;62766.34;5033647;28;20171;-59
2023/07/03 08:03:58;;;;;;;14.75;8.43;;;;;;;27.56;nan;62605.59;5034002;28;20265;-58
2023/07/03 08:06:23;;;;;;;14.40;8.77;;;;;;;27.89;nan;62745.25;5033645;28;20174;-59
2023/07/03 08:08:50;;;;;;;13.18;8.48;;;;;;;27.97;nan;62839.13;5033496;28;20559;-60
2023/07/03 08:11:16;;;;;;;14.98;8.50;;;;;;;28.08;nan;62780.19;5033452;28;20796;-59
2023/07/03 08:13:41;;;;;;;12.73;8.55;;;;;;;28.20;nan;62775.03;5033676;28;20180;-60
2023/07/03 08:16:08;;;;;;;14.30;9.23;;;;;;;28.19;nan;62687.13;5032864;28;20202;-58
2023/07/03 08:18:33;;;;;;;12.73;8.13;;;;;;;28.38;nan;62811.44;5033634;28;20301;-59
2023/07/03 08:20:59;;;;;;;14.40;8.30;;;;;;;28.60;nan;62889.28;5032908;28;20277;-58
2023/07/03 08:23:24;;;;;;;14.35;8.02;;;;;;;28.41;nan;62794.41;5033322;28;20173;-58
2023/07/03 08:25:52;;;;;;;14.32;8.25;;;;;;;28.39;nan;62776.34;5032980;28;20206;-59
2023/07/03 08:28:18;;;;;;;13.52;8.38;;;;;;;28.43;nan;62893.44;5033440;28;20559;-59
2023/07/03 08:30:43;;;;;;;15.07;8.35;;;;;;;28.65;nan;62966.06;5033194;28;20639;-59
2023/07/03 08:33:09;;;;;;;14.70;8.48;;;;;;;28.53;nan;62829.22;5032931;28;20193;-59
2023/07/03 08:35:34;;;;;;;12.80;7.70;;;;;;;28.82;nan;62948.78;5033006;28;20175;-61
2023/07/03 08:38:00;;;;;;;14.38;8.60;;;;;;;28.76;nan;62820.84;5033022;28;20170;-59
2023/07/03 08:40:25;;;;;;;12.55;7.50;;;;;;;28.76;nan;62836.09;5033085;28;20281;-61
2023/07/03 08:42:55;;;;;;;12.35;7.32;;;;;;;28.90;nan;62875.84;5032780;28;20595;-59
2023/07/03 08:45:37;;;;;;;11.38;7.30;;;;;;;29.04;nan;62901.88;5032718;28;20199;-58
2023/07/03 08:48:07;;;;;;;11.63;7.53;;;;;;;28.77;nan;62955.63;5031361;28;20205;-59
2023/07/03 08:50:34;;;;;;;15.75;8.18;;;;;;;28.60;nan;62936.66;5032825;28;20688;-59
2023/07/03 08:53:03;;;;;;;13.98;8.07;;;;;;;29.23;nan;63034.28;5031788;28;20653;-59
2023/07/03 08:55:36;;;;;;;13.82;7.95;;;;;;;29.66;nan;63044.25;5032645;28;20186;-58
2023/07/03 08:58:01;;;;;;;12.57;7.80;;;;;;;29.66;nan;62978.38;5032905;28;20174;-59
2023/07/03 09:00:34;;;;;;;12.13;7.35;;;;;;;29.46;nan;63102.34;5032413;28;20253;-59
2023/07/03 09:03:11;;;;;;;12.25;6.95;;;;;;;29.85;nan;63039.75;5032231;28;20578;-57
2023/07/03 09:05:45;;;;;;;9.40;6.22;;;;;;;29.64;nan;62975.50;5032242;28;20277;-58
2023/07/03 09:08:19;;;;;;;13.35;7.25;;;;;;;29.75;nan;63135.72;5032431;28;20174;-59
2023/07/03 09:10:49;;;;;;;9.68;6.43;;;;;;;30.05;nan;63175.03;5032148;28;20695;-59
2023/07/03 09:13:21;;;;;;;10.30;6.13;;;;;;;30.03;nan;63059.91;5032551;28;20167;-58
2023/07/03 09:16:03;;;;;;;9.10;6.07;;;;;;;29.81;nan;63031.94;5031955;28;20175;-59
2023/07/03 09:18:35;;;;;;;10.23;6.68;;;;;;;29.93;nan;63039.91;5032594;28;20159;-59
2023/07/03 09:21:01;;;;;;;11.70;6.80;;;;;;;29.73;nan;63047.03;5032357;28;20178;-59
2023/07/03 09:23:36;;;;;;;12.73;6.57;;;;;;;29.72;nan;63146.03;5032430;28;20260;-58
2023/07/03 09:26:10;;;;;;;10.40;6.65;;;;;;;29.97;nan;63031.91;5032342;28;20196;-58
2023/07/03 09:28:39;;;;;;;11.25;6.57;;;;;;;29.89;nan;63088.03;5032275;28;20265;-58
2023/07/03 09:31:04;;;;;;;9.65;6.18;;;;;;;30.25;nan;63101.03;5032055;28;20619;-59
2023/07/03 09:33:31;;;;;;;10.40;5.78;;;;;;;30.27;nan;63111.25;5032200;28;20206;-60
2023/07/03 09:36:03;;;;;;;10.52;6.30;;;;;;;30.22;nan;63373.97;5031945;28;20163;-58
2023/07/03 09:38:28;;;;;;;10.05;6.43;;;;;;;30.22;nan;63137.16;5032287;28;20200;-58
2023/07/03 09:40:55;;;;;;;11.10;6.28;;;;;;;30.38;nan;63360.22;5031418;28;20167;-58
2023/07/03 09:43:23;;;;;;;9.13;5.82;;;;;;;30.33;nan;63088.56;5031855;28;20178;-60
2023/07/03 09:45:50;;;;;;;10.23;6.00;;;;;;;30.33;nan;63128.16;5031711;28;20198;-58
2023/07/03 09:48:22;;;;;;;10.70;6.13;;;;;;;30.41;nan;63113.03;5032073;28;20159;-59
2023/07/03 09:50:48;;;;;;;10.63;6.20;;;;;;;30.48;nan;63118.47;5032117;28;20173;-58
2023/07/03 09:53:20;;;;;;;9.30;5.68;;;;;;;30.56;nan;63251.72;5031644;28;20170;-59
2023/07/03 09:55:55;;;;;;;10.05;6.47;;;;;;;30.62;nan;63168.88;5031976;28;20163;-59
2023/07/03 09:58:24;;;;;;;8.88;5.90;;;;;;;30.83;nan;63459.16;5031647;28;20181;-59
2023/07/03 10:00:53;;;;;;;9.23;5.70;;;;;;;30.96;nan;63192.22;5031629;28;20213;-59
2023/07/03 10:03:26;;;;;;;10.02;6.20;;;;;;;30.96;nan;63487.97;5031417;28;20226;-58
2023/07/03 10:05:53;;;;;;;9.75;5.55;;;;;;;31.04;nan;63293.88;5030928;28;20209;-57
2023/07/03 10:08:27;;;;;;;8.27;5.43;;;;;;;31.38;nan;63292.31;5031763;28;20194;-60
2023/07/03 10:10:59;;;;;;;9.63;5.60;;;;;;;31.25;nan;63279.97;5031531;28;20175;-58
2023/07/03 10:13:31;;;;;;;8.65;5.50;;;;;;;30.86;nan;63196.53;5030622;28;20171;-59
2023/07/03 10:15:58;;;;;;;9.30;5.70;;;;;;;30.92;nan;63232.50;5031351;28;20171;-58
2023/07/03 10:18:32;;;;;;;8.32;5.30;;;;;;;31.21;nan;63238.97;5031006;28;20274;-58
2023/07/03 10:21:01;;;;;;;8.02;5.20;;;;;;;30.94;nan;63218.38;5031330;28;20178;-59
2023/07/03 10:23:30;;;;;;;9.90;5.45;;;;;;;31.37;nan;63275.88;5031492;28;20243;-59
2023/07/03 10:26:12;;;;;;;8.57;5.40;;;;;;;29.09;nan;63055.03;5031452;28;20256;-59
2023/07/03 10:28:43;;;;;;;9.95;5.63;;;;;;;30.96;nan;63273.50;5031430;28;20232;-58
2023/07/03 10:31:14;;;;;;;9.70;5.88;;;;;;;31.04;nan;63266.91;5030563;28;20709;-58
2023/07/03 10:33:48;;;;;;;8.82;5.10;;;;;;;31.20;nan;63253.06;5031474;28;20178;-59
2023/07/03 10:36:22;;;;;;;8.32;5.65;;;;;;;31.46;nan;63309.47;5030860;28;20173;-59
2023/07/03 10:38:55;;;;;;;9.52;5.45;;;;;;;31.48;nan;63288.56;5030157;28;20170;-60
2023/07/03 10:41:40;;;;;;;8.48;5.47;;;;;;;31.23;nan;63179.91;5030880;28;20167;-61
2023/07/03 10:44:16;;;;;;;8.90;5.40;;;;;;;31.08;nan;63335.47;5031169;28;20684;-58
2023/07/03 10:46:49;;;;;;;8.20;5.28;;;;;;;31.71;nan;63264.31;5025421;28;20178;-58
2023/07/03 10:49:25;;;;;;;7.93;5.13;;;;;;;31.76;nan;63338.81;4668094;28;20930;-58
2023/07/03 10:52:15;;;;;;;8.70;5.75;;;;;;;31.50;nan;63409.22;4586512;28;20918;-58
2023/07/03 10:55:02;;;;;;;11.38;5.40;;;;;;;31.73;nan;63393.50;4561706;28;20195;-59
2023/07/03 10:57:46;;;;;;;8.23;5.55;;;;;;;32.01;nan;63369.72;4731091;28;20887;-58
2023/07/03 11:00:20;;;;;;;8.75;5.35;;;;;;;31.65;nan;63288.53;4391001;28;20912;-57
2023/07/03 11:03:27;;;;;;;9.98;5.47;;;;;;;31.66;nan;63353.13;4703085;28;20230;-59
2023/07/03 11:05:58;;;;;;;9.48;5.60;;;;;;;;;;4989236;28;20200;-58
2023/07/03 11:08:42;;;;;;;9.52;5.43;;;;;;;31.53;nan;63281.13;5023684;28;20227;-61
2023/07/03 11:11:22;;;;;;;9.13;5.68;;;;;;;31.56;nan;63242.31;5031087;28;20676;-62
2023/07/03 11:13:55;;;;;;;6.50;4.07;;;;;;;31.40;nan;63363.91;5030956;28;20313;-61
2023/07/03 11:16:28;;;;;;;8.80;5.28;;;;;;;31.50;nan;63401.88;5031117;28;20171;-60
2023/07/03 11:19:16;;;;;;;8.70;4.63;;;;;;;31.84;nan;63390.34;5030596;28;20171;-63
2023/07/03 11:22:02;;;;;;;8.30;4.80;;;;;;;31.76;nan;63333.53;5030656;28;20177;-61
2023/07/03 11:24:40;;;;;;;9.35;5.10;;;;;;;32.07;nan;63469.25;5029891;28;20183;-51
2023/07/03 11:27:17;;;;;;;9.00;5.45;;;;;;;32.08;nan;63443.38;5032617;28;20174;-49
2023/07/03 11:29:43;;;;;;;7.90;5.03;;;;;;;32.53;nan;63497.44;5033405;28;20162;-53
2023/07/03 11:32:09;;;;;;;9.07;5.10;;;;;;;32.34;nan;63513.69;5033390;28;20182;-50
2023/07/03 11:34:35;;;;;;;8.40;4.30;;;;;;;32.34;nan;63450.19;5033620;28;20166;-50
2023/07/03 11:37:01;;;;;;;6.10;4.30;;;;;;;32.47;nan;63501.09;5033272;28;20248;-52
2023/07/03 11:39:29;;;;;;;8.85;5.00;;;;;;;31.90;nan;63622.09;5034452;28;20217;-50
2023/07/03 11:42:00;;;;;;;8.95;4.82;;;;;;;32.15;nan;63510.25;5034680;28;20232;-53
2023/07/03 11:44:38;;;;;;;7.40;4.90;;;;;;;32.06;nan;63380.22;5034337;28;20202;-52
2023/07/03 11:47:13;;;;;;;8.45;5.15;;;;;;;32.29;nan;63473.50;5034307;28;20258;-51
2023/07/03 11:50:04;;;;;;;8.15;5.15;;;;;;;32.49;nan;63514.59;5033902;28;20171;-49
2023/07/03 11:52:32;;;;;;;7.70;4.32;;;;;;;32.40;nan;63512.72;5029157;28;20191;-52